首页
METAR-TAF:

METAR-TAF

机场 :

伊林加, 坦桑尼亚

纬度: 07-40S, 经度: 035-45E, 海拔: 1426米

当前天气观测

该预报发布于1小时和13分钟前的04:00 UTC
风速8节,风向南转南东
温度 15°C
湿度 72%
气压 1026 hPa
能见度10公里或以上
少量云层高于1400英尺

METAR: HTIR 170400Z 16008KT 9999 FEW014 15/10 Q1026

时间: 08:13 (05:13 UTC)


TAF: 丢失

超过4000个机场的气象观测和天气预报(METAR&TAF报告)。

可查询的气象台以黄色和红色小点在地图上表示。

将鼠标移到小点上方,可查看气象台名称。

然后点击查看天气观测和预报。

如需切换地图:点击带黑十字的绿色按钮放大地图;点击带横线的绿色按钮缩小地图;或者点击绿色箭头查看邻近地区的地图。


METAR-TAF: